sensor_id;sensor_type;location;lat;lon;timestamp;P1;durP1;ratioP1;P2;durP2;ratioP2
11504;SDS011;5809;53.262;10.408;2024-03-17T00:01:56;15.73;;;3.30;;
11504;SDS011;5809;53.262;10.408;2024-03-17T00:04:21;16.30;;;3.70;;
11504;SDS011;5809;53.262;10.408;2024-03-17T00:06:49;24.67;;;4.67;;
11504;SDS011;5809;53.262;10.408;2024-03-17T00:09:15;22.73;;;3.97;;
11504;SDS011;5809;53.262;10.408;2024-03-17T00:11:43;33.00;;;4.13;;
11504;SDS011;5809;53.262;10.408;2024-03-17T00:14:10;16.90;;;3.63;;
11504;SDS011;5809;53.262;10.408;2024-03-17T00:16:37;21.20;;;3.80;;
11504;SDS011;5809;53.262;10.408;2024-03-17T00:19:04;25.20;;;3.77;;
11504;SDS011;5809;53.262;10.408;2024-03-17T00:21:31;20.80;;;4.10;;
11504;SDS011;5809;53.262;10.408;2024-03-17T00:23:59;17.93;;;3.53;;
11504;SDS011;5809;53.262;10.408;2024-03-17T00:26:27;25.67;;;4.47;;
11504;SDS011;5809;53.262;10.408;2024-03-17T00:28:54;18.33;;;3.93;;
11504;SDS011;5809;53.262;10.408;2024-03-17T00:31:21;20.73;;;4.13;;
11504;SDS011;5809;53.262;10.408;2024-03-17T00:33:48;19.70;;;4.60;;
11504;SDS011;5809;53.262;10.408;2024-03-17T00:36:18;26.20;;;5.63;;
11504;SDS011;5809;53.262;10.408;2024-03-17T00:38:44;28.43;;;4.90;;
11504;SDS011;5809;53.262;10.408;2024-03-17T00:41:12;18.03;;;3.93;;
11504;SDS011;5809;53.262;10.408;2024-03-17T00:43:38;25.93;;;4.40;;
11504;SDS011;5809;53.262;10.408;2024-03-17T00:46:05;23.03;;;4.40;;
11504;SDS011;5809;53.262;10.408;2024-03-17T00:48:31;24.37;;;4.67;;
11504;SDS011;5809;53.262;10.408;2024-03-17T00:50:58;25.80;;;4.37;;
11504;SDS011;5809;53.262;10.408;2024-03-17T00:53:24;24.90;;;3.87;;
11504;SDS011;5809;53.262;10.408;2024-03-17T00:55:51;24.70;;;4.70;;
11504;SDS011;5809;53.262;10.408;2024-03-17T00:58:19;24.77;;;3.63;;
11504;SDS011;5809;53.262;10.408;2024-03-17T01:00:46;20.50;;;4.17;;
11504;SDS011;5809;53.262;10.408;2024-03-17T01:03:13;20.47;;;3.67;;
11504;SDS011;5809;53.262;10.408;2024-03-17T01:05:40;27.83;;;4.23;;
11504;SDS011;5809;53.262;10.408;2024-03-17T01:08:07;23.13;;;4.07;;
11504;SDS011;5809;53.262;10.408;2024-03-17T01:10:36;24.77;;;4.10;;
11504;SDS011;5809;53.262;10.408;2024-03-17T01:13:03;22.07;;;3.73;;
11504;SDS011;5809;53.262;10.408;2024-03-17T01:15:31;22.70;;;4.17;;
11504;SDS011;5809;53.262;10.408;2024-03-17T01:17:57;30.37;;;4.30;;
11504;SDS011;5809;53.262;10.408;2024-03-17T01:20:24;18.57;;;3.30;;
11504;SDS011;5809;53.262;10.408;2024-03-17T01:22:50;21.70;;;4.67;;
11504;SDS011;5809;53.262;10.408;2024-03-17T01:25:18;19.97;;;3.83;;
11504;SDS011;5809;53.262;10.408;2024-03-17T01:27:44;27.07;;;5.10;;
11504;SDS011;5809;53.262;10.408;2024-03-17T01:30:12;17.13;;;3.40;;
11504;SDS011;5809;53.262;10.408;2024-03-17T01:32:39;21.00;;;4.03;;
11504;SDS011;5809;53.262;10.408;2024-03-17T01:35:06;24.43;;;4.67;;
11504;SDS011;5809;53.262;10.408;2024-03-17T01:37:32;22.07;;;4.23;;
11504;SDS011;5809;53.262;10.408;2024-03-17T01:39:59;23.63;;;4.37;;
11504;SDS011;5809;53.262;10.408;2024-03-17T01:42:25;30.73;;;4.77;;
11504;SDS011;5809;53.262;10.408;2024-03-17T01:44:52;22.60;;;4.50;;
11504;SDS011;5809;53.262;10.408;2024-03-17T01:47:18;26.63;;;5.07;;
11504;SDS011;5809;53.262;10.408;2024-03-17T01:49:46;24.43;;;4.33;;
11504;SDS011;5809;53.262;10.408;2024-03-17T01:52:13;19.53;;;4.27;;
11504;SDS011;5809;53.262;10.408;2024-03-17T01:54:40;22.40;;;4.23;;
11504;SDS011;5809;53.262;10.408;2024-03-17T01:57:07;25.13;;;4.67;;
11504;SDS011;5809;53.262;10.408;2024-03-17T01:59:34;22.73;;;4.23;;
11504;SDS011;5809;53.262;10.408;2024-03-17T02:02:00;20.90;;;3.63;;
11504;SDS011;5809;53.262;10.408;2024-03-17T02:04:28;20.50;;;3.63;;
11504;SDS011;5809;53.262;10.408;2024-03-17T02:06:55;24.20;;;4.43;;
11504;SDS011;5809;53.262;10.408;2024-03-17T02:09:22;21.10;;;4.07;;
11504;SDS011;5809;53.262;10.408;2024-03-17T02:11:48;20.70;;;4.40;;
11504;SDS011;5809;53.262;10.408;2024-03-17T02:14:14;23.50;;;3.37;;
11504;SDS011;5809;53.262;10.408;2024-03-17T02:16:42;22.70;;;4.23;;
11504;SDS011;5809;53.262;10.408;2024-03-17T02:19:09;23.57;;;4.27;;
11504;SDS011;5809;53.262;10.408;2024-03-17T02:21:35;31.67;;;4.67;;
11504;SDS011;5809;53.262;10.408;2024-03-17T02:24:04;26.77;;;4.07;;
11504;SDS011;5809;53.262;10.408;2024-03-17T02:26:29;23.33;;;3.90;;
11504;SDS011;5809;53.262;10.408;2024-03-17T02:28:56;21.33;;;3.63;;
11504;SDS011;5809;53.262;10.408;2024-03-17T02:31:22;23.73;;;4.57;;
11504;SDS011;5809;53.262;10.408;2024-03-17T02:33:49;26.10;;;4.60;;
11504;SDS011;5809;53.262;10.408;2024-03-17T02:36:15;21.10;;;4.13;;
11504;SDS011;5809;53.262;10.408;2024-03-17T02:38:42;20.63;;;3.97;;
11504;SDS011;5809;53.262;10.408;2024-03-17T02:41:28;19.77;;;4.20;;
11504;SDS011;5809;53.262;10.408;2024-03-17T02:43:55;20.30;;;4.20;;
11504;SDS011;5809;53.262;10.408;2024-03-17T02:46:22;15.50;;;3.50;;
11504;SDS011;5809;53.262;10.408;2024-03-17T02:48:50;21.93;;;4.03;;
11504;SDS011;5809;53.262;10.408;2024-03-17T02:51:18;20.83;;;3.77;;
11504;SDS011;5809;53.262;10.408;2024-03-17T02:53:48;25.13;;;4.10;;
11504;SDS011;5809;53.262;10.408;2024-03-17T02:56:15;23.37;;;4.17;;
11504;SDS011;5809;53.262;10.408;2024-03-17T02:58:45;23.33;;;3.90;;
11504;SDS011;5809;53.262;10.408;2024-03-17T03:01:13;17.83;;;3.93;;
11504;SDS011;5809;53.262;10.408;2024-03-17T03:03:41;15.60;;;3.97;;
11504;SDS011;5809;53.262;10.408;2024-03-17T03:06:08;21.57;;;3.93;;
11504;SDS011;5809;53.262;10.408;2024-03-17T03:08:36;22.23;;;3.40;;
11504;SDS011;5809;53.262;10.408;2024-03-17T03:11:05;17.40;;;3.60;;
11504;SDS011;5809;53.262;10.408;2024-03-17T03:13:35;29.50;;;3.70;;
11504;SDS011;5809;53.262;10.408;2024-03-17T03:16:04;17.33;;;3.87;;
11504;SDS011;5809;53.262;10.408;2024-03-17T03:18:33;14.83;;;3.93;;
11504;SDS011;5809;53.262;10.408;2024-03-17T03:21:00;23.33;;;4.00;;
11504;SDS011;5809;53.262;10.408;2024-03-17T03:23:26;26.20;;;4.67;;
11504;SDS011;5809;53.262;10.408;2024-03-17T03:25:57;20.27;;;3.97;;
11504;SDS011;5809;53.262;10.408;2024-03-17T03:28:24;18.03;;;4.30;;
11504;SDS011;5809;53.262;10.408;2024-03-17T03:30:52;27.17;;;4.73;;
11504;SDS011;5809;53.262;10.408;2024-03-17T03:33:20;25.53;;;4.53;;
11504;SDS011;5809;53.262;10.408;2024-03-17T03:35:47;18.43;;;4.00;;
11504;SDS011;5809;53.262;10.408;2024-03-17T03:38:16;21.70;;;4.23;;
11504;SDS011;5809;53.262;10.408;2024-03-17T03:40:43;21.47;;;4.80;;
11504;SDS011;5809;53.262;10.408;2024-03-17T03:43:10;21.83;;;4.23;;
11504;SDS011;5809;53.262;10.408;2024-03-17T03:45:38;23.03;;;4.30;;
11504;SDS011;5809;53.262;10.408;2024-03-17T03:48:06;18.63;;;3.77;;
11504;SDS011;5809;53.262;10.408;2024-03-17T03:50:36;17.43;;;4.07;;
11504;SDS011;5809;53.262;10.408;2024-03-17T03:53:03;19.83;;;4.27;;
11504;SDS011;5809;53.262;10.408;2024-03-17T03:55:31;23.20;;;3.87;;
11504;SDS011;5809;53.262;10.408;2024-03-17T03:57:58;17.03;;;3.73;;
11504;SDS011;5809;53.262;10.408;2024-03-17T04:00:24;23.67;;;4.37;;
11504;SDS011;5809;53.262;10.408;2024-03-17T04:02:54;20.63;;;3.90;;
11504;SDS011;5809;53.262;10.408;2024-03-17T04:05:21;25.57;;;4.67;;
11504;SDS011;5809;53.262;10.408;2024-03-17T04:07:50;22.50;;;4.27;;
11504;SDS011;5809;53.262;10.408;2024-03-17T04:10:17;21.77;;;4.23;;
11504;SDS011;5809;53.262;10.408;2024-03-17T04:12:45;18.77;;;3.53;;
11504;SDS011;5809;53.262;10.408;2024-03-17T04:15:12;26.13;;;4.90;;
11504;SDS011;5809;53.262;10.408;2024-03-17T04:17:40;21.63;;;4.27;;
11504;SDS011;5809;53.262;10.408;2024-03-17T04:20:08;27.17;;;5.17;;
11504;SDS011;5809;53.262;10.408;2024-03-17T04:22:38;22.10;;;4.23;;
11504;SDS011;5809;53.262;10.408;2024-03-17T04:25:07;22.70;;;4.37;;
11504;SDS011;5809;53.262;10.408;2024-03-17T04:27:34;17.53;;;3.97;;
11504;SDS011;5809;53.262;10.408;2024-03-17T04:30:01;28.97;;;5.20;;
11504;SDS011;5809;53.262;10.408;2024-03-17T04:32:30;20.53;;;4.40;;
11504;SDS011;5809;53.262;10.408;2024-03-17T04:34:58;24.17;;;4.80;;
11504;SDS011;5809;53.262;10.408;2024-03-17T04:37:25;27.37;;;5.40;;
11504;SDS011;5809;53.262;10.408;2024-03-17T04:39:52;25.07;;;4.87;;
11504;SDS011;5809;53.262;10.408;2024-03-17T04:42:24;24.90;;;5.33;;
11504;SDS011;5809;53.262;10.408;2024-03-17T04:44:51;20.53;;;4.67;;
11504;SDS011;5809;53.262;10.408;2024-03-17T04:47:18;24.70;;;5.57;;
11504;SDS011;5809;53.262;10.408;2024-03-17T04:49:45;20.63;;;5.07;;
11504;SDS011;5809;53.262;10.408;2024-03-17T04:52:12;27.93;;;5.60;;
11504;SDS011;5809;53.262;10.408;2024-03-17T04:54:40;25.60;;;5.30;;
11504;SDS011;5809;53.262;10.408;2024-03-17T04:57:08;19.53;;;4.80;;
11504;SDS011;5809;53.262;10.408;2024-03-17T04:59:36;25.10;;;5.97;;
11504;SDS011;5809;53.262;10.408;2024-03-17T05:02:03;28.43;;;6.30;;
11504;SDS011;5809;53.262;10.408;2024-03-17T05:04:30;20.17;;;4.83;;
11504;SDS011;5809;53.262;10.408;2024-03-17T05:06:57;25.40;;;5.47;;
11504;SDS011;5809;53.262;10.408;2024-03-17T05:09:24;26.37;;;5.20;;
11504;SDS011;5809;53.262;10.408;2024-03-17T05:11:50;20.43;;;4.97;;
11504;SDS011;5809;53.262;10.408;2024-03-17T05:14:18;20.13;;;4.90;;
11504;SDS011;5809;53.262;10.408;2024-03-17T05:16:48;23.60;;;5.10;;
11504;SDS011;5809;53.262;10.408;2024-03-17T05:19:15;20.10;;;4.53;;
11504;SDS011;5809;53.262;10.408;2024-03-17T05:21:42;23.50;;;5.07;;
11504;SDS011;5809;53.262;10.408;2024-03-17T05:24:09;19.53;;;4.73;;
11504;SDS011;5809;53.262;10.408;2024-03-17T05:26:37;23.27;;;5.07;;
11504;SDS011;5809;53.262;10.408;2024-03-17T05:29:03;18.17;;;3.97;;
11504;SDS011;5809;53.262;10.408;2024-03-17T05:31:30;26.70;;;4.90;;
11504;SDS011;5809;53.262;10.408;2024-03-17T05:33:59;22.40;;;4.60;;
11504;SDS011;5809;53.262;10.408;2024-03-17T05:36:25;18.10;;;4.80;;
11504;SDS011;5809;53.262;10.408;2024-03-17T05:38:52;25.40;;;4.60;;
11504;SDS011;5809;53.262;10.408;2024-03-17T05:41:19;21.83;;;5.80;;
11504;SDS011;5809;53.262;10.408;2024-03-17T05:43:46;21.97;;;4.63;;
11504;SDS011;5809;53.262;10.408;2024-03-17T05:46:14;21.20;;;4.97;;
11504;SDS011;5809;53.262;10.408;2024-03-17T05:48:40;23.03;;;4.83;;
11504;SDS011;5809;53.262;10.408;2024-03-17T05:51:09;14.30;;;4.60;;
11504;SDS011;5809;53.262;10.408;2024-03-17T05:53:37;21.20;;;4.87;;
11504;SDS011;5809;53.262;10.408;2024-03-17T05:56:05;19.30;;;4.70;;
11504;SDS011;5809;53.262;10.408;2024-03-17T05:58:34;20.10;;;5.00;;
11504;SDS011;5809;53.262;10.408;2024-03-17T06:01:02;19.50;;;5.37;;
11504;SDS011;5809;53.262;10.408;2024-03-17T06:03:29;19.47;;;5.50;;
11504;SDS011;5809;53.262;10.408;2024-03-17T06:05:58;18.23;;;4.60;;
11504;SDS011;5809;53.262;10.408;2024-03-17T06:08:26;24.00;;;5.13;;
11504;SDS011;5809;53.262;10.408;2024-03-17T06:10:53;20.37;;;5.70;;
11504;SDS011;5809;53.262;10.408;2024-03-17T06:13:22;19.77;;;4.30;;
11504;SDS011;5809;53.262;10.408;2024-03-17T06:15:49;18.57;;;4.37;;
11504;SDS011;5809;53.262;10.408;2024-03-17T06:18:16;16.83;;;3.80;;
11504;SDS011;5809;53.262;10.408;2024-03-17T06:20:44;19.67;;;3.83;;
11504;SDS011;5809;53.262;10.408;2024-03-17T06:23:11;12.00;;;3.77;;
11504;SDS011;5809;53.262;10.408;2024-03-17T06:25:41;16.53;;;3.87;;
11504;SDS011;5809;53.262;10.408;2024-03-17T06:28:08;18.50;;;4.00;;
11504;SDS011;5809;53.262;10.408;2024-03-17T06:30:38;14.83;;;3.50;;
11504;SDS011;5809;53.262;10.408;2024-03-17T06:33:05;9.53;;;2.67;;
11504;SDS011;5809;53.262;10.408;2024-03-17T06:35:33;15.27;;;3.53;;
11504;SDS011;5809;53.262;10.408;2024-03-17T06:38:02;17.93;;;3.77;;
11504;SDS011;5809;53.262;10.408;2024-03-17T06:40:29;14.33;;;3.83;;
11504;SDS011;5809;53.262;10.408;2024-03-17T06:42:58;9.33;;;3.17;;
11504;SDS011;5809;53.262;10.408;2024-03-17T06:45:24;10.20;;;3.20;;
11504;SDS011;5809;53.262;10.408;2024-03-17T06:47:51;9.90;;;2.95;;
11504;SDS011;5809;53.262;10.408;2024-03-17T06:50:18;12.82;;;3.38;;
11504;SDS011;5809;53.262;10.408;2024-03-17T06:52:45;9.25;;;3.25;;
11504;SDS011;5809;53.262;10.408;2024-03-17T06:55:11;10.45;;;3.25;;
11504;SDS011;5809;53.262;10.408;2024-03-17T06:57:41;8.50;;;2.70;;
11504;SDS011;5809;53.262;10.408;2024-03-17T07:00:11;7.28;;;2.60;;
11504;SDS011;5809;53.262;10.408;2024-03-17T07:02:39;8.52;;;2.65;;
11504;SDS011;5809;53.262;10.408;2024-03-17T07:05:10;9.70;;;3.38;;
11504;SDS011;5809;53.262;10.408;2024-03-17T07:07:39;9.57;;;3.08;;
11504;SDS011;5809;53.262;10.408;2024-03-17T07:10:06;8.70;;;3.17;;
11504;SDS011;5809;53.262;10.408;2024-03-17T07:12:33;8.25;;;3.25;;
11504;SDS011;5809;53.262;10.408;2024-03-17T07:15:00;8.82;;;3.28;;
11504;SDS011;5809;53.262;10.408;2024-03-17T07:17:28;7.50;;;3.40;;
11504;SDS011;5809;53.262;10.408;2024-03-17T07:19:55;9.98;;;3.00;;
11504;SDS011;5809;53.262;10.408;2024-03-17T07:22:21;6.93;;;2.78;;
11504;SDS011;5809;53.262;10.408;2024-03-17T07:24:51;5.50;;;2.63;;
11504;SDS011;5809;53.262;10.408;2024-03-17T07:27:20;9.13;;;3.42;;
11504;SDS011;5809;53.262;10.408;2024-03-17T07:29:47;7.05;;;3.25;;
11504;SDS011;5809;53.262;10.408;2024-03-17T07:32:14;9.45;;;3.28;;
11504;SDS011;5809;53.262;10.408;2024-03-17T07:34:42;6.70;;;2.97;;
11504;SDS011;5809;53.262;10.408;2024-03-17T07:37:09;10.00;;;3.55;;
11504;SDS011;5809;53.262;10.408;2024-03-17T07:39:35;8.23;;;3.22;;
11504;SDS011;5809;53.262;10.408;2024-03-17T07:42:02;11.10;;;3.42;;
11504;SDS011;5809;53.262;10.408;2024-03-17T07:44:29;6.55;;;2.78;;
11504;SDS011;5809;53.262;10.408;2024-03-17T07:46:59;8.90;;;3.33;;
11504;SDS011;5809;53.262;10.408;2024-03-17T07:49:26;9.05;;;3.47;;
11504;SDS011;5809;53.262;10.408;2024-03-17T07:51:54;10.85;;;3.22;;
11504;SDS011;5809;53.262;10.408;2024-03-17T07:54:22;7.55;;;3.08;;
11504;SDS011;5809;53.262;10.408;2024-03-17T07:56:49;11.35;;;3.72;;
11504;SDS011;5809;53.262;10.408;2024-03-17T07:59:16;7.45;;;2.70;;
11504;SDS011;5809;53.262;10.408;2024-03-17T08:01:43;7.47;;;3.10;;
11504;SDS011;5809;53.262;10.408;2024-03-17T08:04:10;9.75;;;3.28;;
11504;SDS011;5809;53.262;10.408;2024-03-17T08:06:37;9.77;;;2.88;;
11504;SDS011;5809;53.262;10.408;2024-03-17T08:09:07;10.50;;;3.00;;
11504;SDS011;5809;53.262;10.408;2024-03-17T08:11:34;8.48;;;3.22;;
11504;SDS011;5809;53.262;10.408;2024-03-17T08:14:01;6.82;;;2.95;;
11504;SDS011;5809;53.262;10.408;2024-03-17T08:16:28;7.55;;;2.92;;
11504;SDS011;5809;53.262;10.408;2024-03-17T08:18:55;6.00;;;2.53;;
11504;SDS011;5809;53.262;10.408;2024-03-17T08:21:22;7.63;;;2.95;;
11504;SDS011;5809;53.262;10.408;2024-03-17T08:23:50;8.88;;;2.85;;
11504;SDS011;5809;53.262;10.408;2024-03-17T08:26:18;12.60;;;2.92;;
11504;SDS011;5809;53.262;10.408;2024-03-17T08:28:44;10.23;;;2.50;;
11504;SDS011;5809;53.262;10.408;2024-03-17T08:31:12;10.25;;;2.78;;
11504;SDS011;5809;53.262;10.408;2024-03-17T08:33:41;10.13;;;3.08;;
11504;SDS011;5809;53.262;10.408;2024-03-17T08:36:08;9.40;;;2.85;;
11504;SDS011;5809;53.262;10.408;2024-03-17T08:38:36;7.25;;;2.65;;
11504;SDS011;5809;53.262;10.408;2024-03-17T08:41:04;7.65;;;2.60;;
11504;SDS011;5809;53.262;10.408;2024-03-17T08:43:33;7.38;;;2.95;;
11504;SDS011;5809;53.262;10.408;2024-03-17T08:46:00;10.90;;;2.60;;
11504;SDS011;5809;53.262;10.408;2024-03-17T08:48:30;10.43;;;2.33;;
11504;SDS011;5809;53.262;10.408;2024-03-17T08:50:58;6.63;;;2.25;;
11504;SDS011;5809;53.262;10.408;2024-03-17T08:53:26;11.15;;;2.72;;
11504;SDS011;5809;53.262;10.408;2024-03-17T08:55:53;9.55;;;2.30;;
11504;SDS011;5809;53.262;10.408;2024-03-17T08:58:20;7.20;;;2.15;;
11504;SDS011;5809;53.262;10.408;2024-03-17T09:00:49;6.60;;;2.20;;
11504;SDS011;5809;53.262;10.408;2024-03-17T09:03:16;8.27;;;2.13;;
11504;SDS011;5809;53.262;10.408;2024-03-17T09:05:44;11.82;;;2.65;;
11504;SDS011;5809;53.262;10.408;2024-03-17T09:08:14;9.77;;;2.17;;
11504;SDS011;5809;53.262;10.408;2024-03-17T09:10:42;8.27;;;2.63;;
11504;SDS011;5809;53.262;10.408;2024-03-17T09:13:10;6.18;;;1.98;;
11504;SDS011;5809;53.262;10.408;2024-03-17T09:15:40;8.45;;;2.22;;
11504;SDS011;5809;53.262;10.408;2024-03-17T09:18:08;8.77;;;2.53;;
11504;SDS011;5809;53.262;10.408;2024-03-17T09:20:35;7.22;;;1.90;;
11504;SDS011;5809;53.262;10.408;2024-03-17T09:23:01;5.70;;;1.95;;
11504;SDS011;5809;53.262;10.408;2024-03-17T09:25:28;8.48;;;2.08;;
11504;SDS011;5809;53.262;10.408;2024-03-17T09:27:55;9.18;;;2.50;;
11504;SDS011;5809;53.262;10.408;2024-03-17T09:30:23;9.20;;;2.40;;
11504;SDS011;5809;53.262;10.408;2024-03-17T09:32:50;9.85;;;2.45;;
11504;SDS011;5809;53.262;10.408;2024-03-17T09:35:18;8.90;;;2.80;;
11504;SDS011;5809;53.262;10.408;2024-03-17T09:37:45;11.13;;;2.58;;
11504;SDS011;5809;53.262;10.408;2024-03-17T09:40:13;8.25;;;2.58;;
11504;SDS011;5809;53.262;10.408;2024-03-17T09:42:40;7.32;;;2.40;;
11504;SDS011;5809;53.262;10.408;2024-03-17T09:45:08;8.25;;;2.10;;
11504;SDS011;5809;53.262;10.408;2024-03-17T09:47:36;7.65;;;2.33;;
11504;SDS011;5809;53.262;10.408;2024-03-17T09:50:04;7.30;;;2.42;;
11504;SDS011;5809;53.262;10.408;2024-03-17T09:52:39;5.20;;;1.92;;
11504;SDS011;5809;53.262;10.408;2024-03-17T09:55:09;6.70;;;2.42;;
11504;SDS011;5809;53.262;10.408;2024-03-17T09:57:39;7.30;;;2.08;;
11504;SDS011;5809;53.262;10.408;2024-03-17T10:00:09;6.75;;;2.42;;
11504;SDS011;5809;53.262;10.408;2024-03-17T10:02:41;6.80;;;2.00;;
11504;SDS011;5809;53.262;10.408;2024-03-17T10:05:17;5.82;;;1.77;;
11504;SDS011;5809;53.262;10.408;2024-03-17T10:07:47;10.27;;;2.22;;
11504;SDS011;5809;53.262;10.408;2024-03-17T10:10:14;7.50;;;2.20;;
11504;SDS011;5809;53.262;10.408;2024-03-17T10:12:43;5.75;;;1.92;;
11504;SDS011;5809;53.262;10.408;2024-03-17T10:15:10;8.18;;;2.13;;
11504;SDS011;5809;53.262;10.408;2024-03-17T10:17:37;9.43;;;1.90;;
11504;SDS011;5809;53.262;10.408;2024-03-17T10:20:14;8.45;;;2.50;;
11504;SDS011;5809;53.262;10.408;2024-03-17T10:22:58;5.70;;;2.05;;
11504;SDS011;5809;53.262;10.408;2024-03-17T10:25:26;6.50;;;2.55;;
11504;SDS011;5809;53.262;10.408;2024-03-17T10:27:54;9.23;;;1.92;;
11504;SDS011;5809;53.262;10.408;2024-03-17T10:30:21;5.80;;;1.90;;
11504;SDS011;5809;53.262;10.408;2024-03-17T10:32:55;7.20;;;2.20;;
11504;SDS011;5809;53.262;10.408;2024-03-17T10:35:29;8.73;;;2.10;;
11504;SDS011;5809;53.262;10.408;2024-03-17T10:37:59;6.78;;;1.83;;
11504;SDS011;5809;53.262;10.408;2024-03-17T10:40:27;6.28;;;1.98;;
11504;SDS011;5809;53.262;10.408;2024-03-17T10:42:56;8.07;;;1.88;;
11504;SDS011;5809;53.262;10.408;2024-03-17T10:45:23;4.28;;;1.65;;
11504;SDS011;5809;53.262;10.408;2024-03-17T10:47:51;4.95;;;2.10;;
11504;SDS011;5809;53.262;10.408;2024-03-17T10:50:19;6.30;;;1.83;;
11504;SDS011;5809;53.262;10.408;2024-03-17T10:52:47;4.13;;;1.70;;
11504;SDS011;5809;53.262;10.408;2024-03-17T10:55:22;4.82;;;1.83;;
11504;SDS011;5809;53.262;10.408;2024-03-17T10:57:50;4.82;;;1.90;;
11504;SDS011;5809;53.262;10.408;2024-03-17T11:00:19;4.18;;;1.67;;
11504;SDS011;5809;53.262;10.408;2024-03-17T11:02:47;6.72;;;1.63;;
11504;SDS011;5809;53.262;10.408;2024-03-17T11:05:16;3.40;;;1.30;;
11504;SDS011;5809;53.262;10.408;2024-03-17T11:07:46;3.33;;;1.50;;
11504;SDS011;5809;53.262;10.408;2024-03-17T11:10:15;5.13;;;1.52;;
11504;SDS011;5809;53.262;10.408;2024-03-17T11:12:46;6.10;;;1.50;;
11504;SDS011;5809;53.262;10.408;2024-03-17T11:15:37;3.10;;;1.20;;
11504;SDS011;5809;53.262;10.408;2024-03-17T11:21:06;5.55;;;1.77;;
11504;SDS011;5809;53.262;10.408;2024-03-17T11:23:54;4.03;;;1.27;;
11504;SDS011;5809;53.262;10.408;2024-03-17T11:26:26;5.20;;;1.45;;
11504;SDS011;5809;53.262;10.408;2024-03-17T11:28:59;5.72;;;1.60;;
11504;SDS011;5809;53.262;10.408;2024-03-17T11:31:31;7.50;;;1.40;;
11504;SDS011;5809;53.262;10.408;2024-03-17T11:37:05;4.20;;;1.55;;
11504;SDS011;5809;53.262;10.408;2024-03-17T11:39:49;6.65;;;1.60;;
11504;SDS011;5809;53.262;10.408;2024-03-17T11:42:21;4.15;;;1.60;;
11504;SDS011;5809;53.262;10.408;2024-03-17T11:45:03;4.53;;;1.50;;
11504;SDS011;5809;53.262;10.408;2024-03-17T11:47:33;5.35;;;1.73;;
11504;SDS011;5809;53.262;10.408;2024-03-17T11:50:01;4.97;;;1.40;;
11504;SDS011;5809;53.262;10.408;2024-03-17T11:52:29;3.85;;;1.33;;
11504;SDS011;5809;53.262;10.408;2024-03-17T11:54:56;4.13;;;1.52;;
11504;SDS011;5809;53.262;10.408;2024-03-17T11:57:23;5.18;;;1.58;;
11504;SDS011;5809;53.262;10.408;2024-03-17T11:59:50;6.70;;;1.60;;
11504;SDS011;5809;53.262;10.408;2024-03-17T12:02:19;5.28;;;1.70;;
11504;SDS011;5809;53.262;10.408;2024-03-17T12:04:46;4.22;;;1.50;;
11504;SDS011;5809;53.262;10.408;2024-03-17T12:07:14;3.53;;;1.42;;
11504;SDS011;5809;53.262;10.408;2024-03-17T12:09:41;4.55;;;1.83;;
11504;SDS011;5809;53.262;10.408;2024-03-17T12:12:11;6.00;;;1.50;;
11504;SDS011;5809;53.262;10.408;2024-03-17T12:14:41;3.55;;;1.30;;
11504;SDS011;5809;53.262;10.408;2024-03-17T12:17:08;5.15;;;1.58;;
11504;SDS011;5809;53.262;10.408;2024-03-17T12:19:36;4.30;;;1.50;;
11504;SDS011;5809;53.262;10.408;2024-03-17T12:22:04;6.18;;;1.85;;
11504;SDS011;5809;53.262;10.408;2024-03-17T12:24:31;4.68;;;1.60;;
11504;SDS011;5809;53.262;10.408;2024-03-17T12:26:59;5.05;;;1.80;;
11504;SDS011;5809;53.262;10.408;2024-03-17T12:29:28;4.15;;;1.63;;
11504;SDS011;5809;53.262;10.408;2024-03-17T12:31:58;4.00;;;1.75;;
11504;SDS011;5809;53.262;10.408;2024-03-17T12:34:26;4.45;;;1.73;;
11504;SDS011;5809;53.262;10.408;2024-03-17T12:36:55;5.40;;;1.77;;
11504;SDS011;5809;53.262;10.408;2024-03-17T12:39:22;4.30;;;1.45;;
11504;SDS011;5809;53.262;10.408;2024-03-17T12:42:03;3.13;;;1.40;;
11504;SDS011;5809;53.262;10.408;2024-03-17T12:44:30;4.00;;;1.45;;
11504;SDS011;5809;53.262;10.408;2024-03-17T12:46:58;3.13;;;1.30;;
11504;SDS011;5809;53.262;10.408;2024-03-17T12:49:25;3.90;;;1.40;;
11504;SDS011;5809;53.262;10.408;2024-03-17T12:51:53;3.47;;;1.60;;
11504;SDS011;5809;53.262;10.408;2024-03-17T12:54:22;3.90;;;1.30;;
11504;SDS011;5809;53.262;10.408;2024-03-17T12:56:50;3.17;;;1.38;;
11504;SDS011;5809;53.262;10.408;2024-03-17T12:59:39;3.95;;;1.50;;
11504;SDS011;5809;53.262;10.408;2024-03-17T13:02:23;5.70;;;1.52;;
11504;SDS011;5809;53.262;10.408;2024-03-17T13:07:49;5.05;;;1.80;;
11504;SDS011;5809;53.262;10.408;2024-03-17T13:10:17;6.95;;;2.28;;
11504;SDS011;5809;53.262;10.408;2024-03-17T13:12:45;4.05;;;1.60;;
11504;SDS011;5809;53.262;10.408;2024-03-17T13:15:12;7.53;;;1.73;;
11504;SDS011;5809;53.262;10.408;2024-03-17T13:17:40;5.00;;;1.85;;
11504;SDS011;5809;53.262;10.408;2024-03-17T13:20:08;4.88;;;1.73;;
11504;SDS011;5809;53.262;10.408;2024-03-17T13:22:40;5.18;;;2.17;;
11504;SDS011;5809;53.262;10.408;2024-03-17T13:25:12;7.57;;;2.08;;
11504;SDS011;5809;53.262;10.408;2024-03-17T13:27:39;5.07;;;1.80;;
11504;SDS011;5809;53.262;10.408;2024-03-17T13:30:07;4.43;;;1.90;;
11504;SDS011;5809;53.262;10.408;2024-03-17T13:32:34;8.50;;;2.22;;
11504;SDS011;5809;53.262;10.408;2024-03-17T13:35:02;6.18;;;2.10;;
11504;SDS011;5809;53.262;10.408;2024-03-17T13:37:29;8.23;;;2.22;;
11504;SDS011;5809;53.262;10.408;2024-03-17T13:39:56;5.63;;;2.22;;
11504;SDS011;5809;53.262;10.408;2024-03-17T13:42:24;8.88;;;2.20;;
11504;SDS011;5809;53.262;10.408;2024-03-17T13:44:51;4.60;;;2.05;;
11504;SDS011;5809;53.262;10.408;2024-03-17T13:47:18;8.85;;;2.38;;
11504;SDS011;5809;53.262;10.408;2024-03-17T13:49:45;5.65;;;1.60;;
11504;SDS011;5809;53.262;10.408;2024-03-17T13:52:12;7.82;;;2.33;;
11504;SDS011;5809;53.262;10.408;2024-03-17T13:54:39;6.95;;;2.25;;
11504;SDS011;5809;53.262;10.408;2024-03-17T13:57:05;7.05;;;2.22;;
11504;SDS011;5809;53.262;10.408;2024-03-17T13:59:33;5.85;;;2.10;;
11504;SDS011;5809;53.262;10.408;2024-03-17T14:02:01;6.70;;;2.25;;
11504;SDS011;5809;53.262;10.408;2024-03-17T14:04:29;5.25;;;2.20;;
11504;SDS011;5809;53.262;10.408;2024-03-17T14:06:56;11.48;;;2.22;;
11504;SDS011;5809;53.262;10.408;2024-03-17T14:09:23;6.00;;;2.30;;
11504;SDS011;5809;53.262;10.408;2024-03-17T14:11:49;6.25;;;1.92;;
11504;SDS011;5809;53.262;10.408;2024-03-17T14:14:16;5.18;;;2.10;;
11504;SDS011;5809;53.262;10.408;2024-03-17T14:16:44;7.53;;;2.03;;
11504;SDS011;5809;53.262;10.408;2024-03-17T14:19:11;3.80;;;1.80;;
11504;SDS011;5809;53.262;10.408;2024-03-17T14:21:38;5.95;;;2.17;;
11504;SDS011;5809;53.262;10.408;2024-03-17T14:24:05;7.30;;;2.08;;
11504;SDS011;5809;53.262;10.408;2024-03-17T14:26:34;6.07;;;2.13;;
11504;SDS011;5809;53.262;10.408;2024-03-17T14:29:01;5.85;;;2.35;;
11504;SDS011;5809;53.262;10.408;2024-03-17T14:31:30;7.32;;;2.45;;
11504;SDS011;5809;53.262;10.408;2024-03-17T14:33:59;8.23;;;2.45;;
11504;SDS011;5809;53.262;10.408;2024-03-17T14:36:26;9.88;;;2.03;;
11504;SDS011;5809;53.262;10.408;2024-03-17T14:38:54;7.50;;;2.50;;
11504;SDS011;5809;53.262;10.408;2024-03-17T14:41:21;5.45;;;1.73;;
11504;SDS011;5809;53.262;10.408;2024-03-17T14:43:48;6.53;;;2.20;;
11504;SDS011;5809;53.262;10.408;2024-03-17T14:46:14;7.13;;;2.47;;
11504;SDS011;5809;53.262;10.408;2024-03-17T14:48:42;5.78;;;2.00;;
11504;SDS011;5809;53.262;10.408;2024-03-17T14:51:10;5.07;;;1.95;;
11504;SDS011;5809;53.262;10.408;2024-03-17T14:53:37;6.97;;;2.08;;
11504;SDS011;5809;53.262;10.408;2024-03-17T14:56:07;7.95;;;2.40;;